sensor_id;sensor_type;location;lat;lon;timestamp;temperature;humidity
11387;DHT22;5748;53.102;8.456;2024-02-26T00:01:19;7.60;66.90
11387;DHT22;5748;53.102;8.456;2024-02-26T00:03:46;7.60;67.00
11387;DHT22;5748;53.102;8.456;2024-02-26T00:06:13;7.60;67.10
11387;DHT22;5748;53.102;8.456;2024-02-26T00:08:40;7.60;67.20
11387;DHT22;5748;53.102;8.456;2024-02-26T00:11:07;7.50;67.10
11387;DHT22;5748;53.102;8.456;2024-02-26T00:13:35;7.50;68.00
11387;DHT22;5748;53.102;8.456;2024-02-26T00:16:04;7.50;67.30
11387;DHT22;5748;53.102;8.456;2024-02-26T00:18:32;7.50;67.20
11387;DHT22;5748;53.102;8.456;2024-02-26T00:20:59;7.50;67.10
11387;DHT22;5748;53.102;8.456;2024-02-26T00:23:26;7.50;67.10
11387;DHT22;5748;53.102;8.456;2024-02-26T00:25:53;7.40;67.00
11387;DHT22;5748;53.102;8.456;2024-02-26T00:28:20;7.40;67.00
11387;DHT22;5748;53.102;8.456;2024-02-26T00:30:48;7.30;67.00
11387;DHT22;5748;53.102;8.456;2024-02-26T00:33:17;7.30;67.00
11387;DHT22;5748;53.102;8.456;2024-02-26T00:35:44;7.30;67.00
11387;DHT22;5748;53.102;8.456;2024-02-26T00:38:11;8.10;67.80
11387;DHT22;5748;53.102;8.456;2024-02-26T00:40:38;7.20;66.90
11387;DHT22;5748;53.102;8.456;2024-02-26T00:43:06;7.20;67.00
11387;DHT22;5748;53.102;8.456;2024-02-26T00:45:33;7.20;67.00
11387;DHT22;5748;53.102;8.456;2024-02-26T00:48:00;7.10;67.00
11387;DHT22;5748;53.102;8.456;2024-02-26T00:50:32;7.10;67.00
11387;DHT22;5748;53.102;8.456;2024-02-26T00:52:59;7.10;67.10
11387;DHT22;5748;53.102;8.456;2024-02-26T00:55:26;7.10;67.10
11387;DHT22;5748;53.102;8.456;2024-02-26T00:57:53;7.00;67.00
11387;DHT22;5748;53.102;8.456;2024-02-26T01:00:20;7.00;67.30
11387;DHT22;5748;53.102;8.456;2024-02-26T01:02:47;7.00;67.20
11387;DHT22;5748;53.102;8.456;2024-02-26T01:05:14;6.90;67.10
11387;DHT22;5748;53.102;8.456;2024-02-26T01:07:43;6.90;67.30
11387;DHT22;5748;53.102;8.456;2024-02-26T01:10:10;6.90;67.40
11387;DHT22;5748;53.102;8.456;2024-02-26T01:12:37;6.90;67.50
11387;DHT22;5748;53.102;8.456;2024-02-26T01:15:05;6.80;67.40
11387;DHT22;5748;53.102;8.456;2024-02-26T01:17:32;6.80;67.40
11387;DHT22;5748;53.102;8.456;2024-02-26T01:19:59;6.80;67.30
11387;DHT22;5748;53.102;8.456;2024-02-26T01:22:26;6.70;67.30
11387;DHT22;5748;53.102;8.456;2024-02-26T01:24:55;6.70;67.30
11387;DHT22;5748;53.102;8.456;2024-02-26T01:27:22;6.70;67.40
11387;DHT22;5748;53.102;8.456;2024-02-26T01:29:52;6.70;67.40
11387;DHT22;5748;53.102;8.456;2024-02-26T01:32:19;6.70;67.40
11387;DHT22;5748;53.102;8.456;2024-02-26T01:34:46;6.60;68.00
11387;DHT22;5748;53.102;8.456;2024-02-26T01:37:13;6.60;67.30
11387;DHT22;5748;53.102;8.456;2024-02-26T01:39:40;6.60;67.40
11387;DHT22;5748;53.102;8.456;2024-02-26T01:42:08;6.60;67.40
11387;DHT22;5748;53.102;8.456;2024-02-26T01:44:35;6.60;67.50
11387;DHT22;5748;53.102;8.456;2024-02-26T01:47:04;6.50;67.50
11387;DHT22;5748;53.102;8.456;2024-02-26T01:49:32;6.50;67.60
11387;DHT22;5748;53.102;8.456;2024-02-26T01:52:01;6.50;67.50
11387;DHT22;5748;53.102;8.456;2024-02-26T01:54:29;6.40;67.50
11387;DHT22;5748;53.102;8.456;2024-02-26T01:56:56;6.40;67.70
11387;DHT22;5748;53.102;8.456;2024-02-26T01:59:26;6.40;67.70
11387;DHT22;5748;53.102;8.456;2024-02-26T02:01:55;6.40;67.60
11387;DHT22;5748;53.102;8.456;2024-02-26T02:04:24;6.40;67.80
11387;DHT22;5748;53.102;8.456;2024-02-26T02:06:52;6.40;67.90
11387;DHT22;5748;53.102;8.456;2024-02-26T02:09:19;6.40;67.90
11387;DHT22;5748;53.102;8.456;2024-02-26T02:11:48;6.30;67.80
11387;DHT22;5748;53.102;8.456;2024-02-26T02:14:15;6.30;67.80
11387;DHT22;5748;53.102;8.456;2024-02-26T02:16:44;6.30;67.80
11387;DHT22;5748;53.102;8.456;2024-02-26T02:19:11;6.30;68.00
11387;DHT22;5748;53.102;8.456;2024-02-26T02:21:39;6.30;67.90
11387;DHT22;5748;53.102;8.456;2024-02-26T02:24:06;6.30;67.90
11387;DHT22;5748;53.102;8.456;2024-02-26T02:26:33;6.30;67.90
11387;DHT22;5748;53.102;8.456;2024-02-26T02:29:00;6.30;67.80
11387;DHT22;5748;53.102;8.456;2024-02-26T02:31:28;6.30;68.60
11387;DHT22;5748;53.102;8.456;2024-02-26T02:33:56;6.30;67.90
11387;DHT22;5748;53.102;8.456;2024-02-26T02:36:23;6.20;67.90
11387;DHT22;5748;53.102;8.456;2024-02-26T02:38:52;6.20;67.80
11387;DHT22;5748;53.102;8.456;2024-02-26T02:41:19;6.20;67.90
11387;DHT22;5748;53.102;8.456;2024-02-26T02:43:47;6.20;67.90
11387;DHT22;5748;53.102;8.456;2024-02-26T02:46:14;6.20;67.90
11387;DHT22;5748;53.102;8.456;2024-02-26T02:48:41;6.20;67.90
11387;DHT22;5748;53.102;8.456;2024-02-26T02:51:09;6.10;67.90
11387;DHT22;5748;53.102;8.456;2024-02-26T02:53:36;6.10;67.80
11387;DHT22;5748;53.102;8.456;2024-02-26T02:56:05;6.10;67.80
11387;DHT22;5748;53.102;8.456;2024-02-26T02:58:32;6.10;67.80
11387;DHT22;5748;53.102;8.456;2024-02-26T03:00:59;6.10;67.80
11387;DHT22;5748;53.102;8.456;2024-02-26T03:03:26;6.10;67.90
11387;DHT22;5748;53.102;8.456;2024-02-26T03:05:54;6.10;67.90
11387;DHT22;5748;53.102;8.456;2024-02-26T03:08:22;6.10;67.90
11387;DHT22;5748;53.102;8.456;2024-02-26T03:10:49;6.00;67.80
11387;DHT22;5748;53.102;8.456;2024-02-26T03:13:17;6.00;67.80
11387;DHT22;5748;53.102;8.456;2024-02-26T03:15:45;6.00;67.70
11387;DHT22;5748;53.102;8.456;2024-02-26T03:18:12;6.00;67.80
11387;DHT22;5748;53.102;8.456;2024-02-26T03:20:39;6.00;67.70
11387;DHT22;5748;53.102;8.456;2024-02-26T03:23:06;6.00;67.70
11387;DHT22;5748;53.102;8.456;2024-02-26T03:25:35;5.90;67.70
11387;DHT22;5748;53.102;8.456;2024-02-26T03:28:02;5.90;67.60
11387;DHT22;5748;53.102;8.456;2024-02-26T03:30:30;5.90;67.70
11387;DHT22;5748;53.102;8.456;2024-02-26T03:32:57;5.90;67.80
11387;DHT22;5748;53.102;8.456;2024-02-26T03:35:24;7.20;69.00
11387;DHT22;5748;53.102;8.456;2024-02-26T03:37:51;4.00;66.00
11387;DHT22;5748;53.102;8.456;2024-02-26T03:40:18;5.80;67.90
11387;DHT22;5748;53.102;8.456;2024-02-26T03:42:45;5.80;67.90
11387;DHT22;5748;53.102;8.456;2024-02-26T03:45:13;5.80;67.90
11387;DHT22;5748;53.102;8.456;2024-02-26T03:47:41;5.80;67.90
11387;DHT22;5748;53.102;8.456;2024-02-26T03:50:08;5.80;67.90
11387;DHT22;5748;53.102;8.456;2024-02-26T03:52:36;5.80;68.00
11387;DHT22;5748;53.102;8.456;2024-02-26T03:55:03;5.80;68.00
11387;DHT22;5748;53.102;8.456;2024-02-26T03:57:30;5.80;68.10
11387;DHT22;5748;53.102;8.456;2024-02-26T03:59:57;5.80;68.00
11387;DHT22;5748;53.102;8.456;2024-02-26T04:02:24;5.80;68.10
11387;DHT22;5748;53.102;8.456;2024-02-26T04:04:53;5.80;68.10
11387;DHT22;5748;53.102;8.456;2024-02-26T04:07:20;5.80;68.20
11387;DHT22;5748;53.102;8.456;2024-02-26T04:09:47;5.80;68.20
11387;DHT22;5748;53.102;8.456;2024-02-26T04:12:14;5.70;68.10
11387;DHT22;5748;53.102;8.456;2024-02-26T04:14:41;5.70;68.10
11387;DHT22;5748;53.102;8.456;2024-02-26T04:17:08;5.70;68.20
11387;DHT22;5748;53.102;8.456;2024-02-26T04:19:36;5.70;68.30
11387;DHT22;5748;53.102;8.456;2024-02-26T04:22:05;5.70;68.30
11387;DHT22;5748;53.102;8.456;2024-02-26T04:24:32;5.70;69.10
11387;DHT22;5748;53.102;8.456;2024-02-26T04:26:59;5.70;68.40
11387;DHT22;5748;53.102;8.456;2024-02-26T04:29:26;5.80;68.50
11387;DHT22;5748;53.102;8.456;2024-02-26T04:31:52;5.80;68.50
11387;DHT22;5748;53.102;8.456;2024-02-26T04:34:19;5.80;68.60
11387;DHT22;5748;53.102;8.456;2024-02-26T04:36:46;5.70;68.40
11387;DHT22;5748;53.102;8.456;2024-02-26T04:39:14;5.70;68.40
11387;DHT22;5748;53.102;8.456;2024-02-26T04:41:42;5.80;68.60
11387;DHT22;5748;53.102;8.456;2024-02-26T04:44:09;5.80;68.60
11387;DHT22;5748;53.102;8.456;2024-02-26T04:46:36;5.80;68.60
11387;DHT22;5748;53.102;8.456;2024-02-26T04:49:03;5.80;68.60
11387;DHT22;5748;53.102;8.456;2024-02-26T04:51:30;5.80;69.30
11387;DHT22;5748;53.102;8.456;2024-02-26T04:53:57;5.80;68.60
11387;DHT22;5748;53.102;8.456;2024-02-26T04:56:25;5.80;68.60
11387;DHT22;5748;53.102;8.456;2024-02-26T04:58:52;5.80;68.60
11387;DHT22;5748;53.102;8.456;2024-02-26T05:01:19;5.80;68.60
11387;DHT22;5748;53.102;8.456;2024-02-26T05:03:46;5.80;68.60
11387;DHT22;5748;53.102;8.456;2024-02-26T05:06:14;5.80;68.60
11387;DHT22;5748;53.102;8.456;2024-02-26T05:08:41;5.80;69.00
11387;DHT22;5748;53.102;8.456;2024-02-26T05:11:09;5.90;68.80
11387;DHT22;5748;53.102;8.456;2024-02-26T05:13:38;5.90;69.40
11387;DHT22;5748;53.102;8.456;2024-02-26T05:16:05;5.90;68.60
11387;DHT22;5748;53.102;8.456;2024-02-26T05:18:32;5.90;68.80
11387;DHT22;5748;53.102;8.456;2024-02-26T05:20:59;5.90;68.70
11387;DHT22;5748;53.102;8.456;2024-02-26T05:23:26;5.90;68.80
11387;DHT22;5748;53.102;8.456;2024-02-26T05:25:53;5.90;68.70
11387;DHT22;5748;53.102;8.456;2024-02-26T05:28:20;5.90;68.70
11387;DHT22;5748;53.102;8.456;2024-02-26T05:30:49;6.00;68.80
11387;DHT22;5748;53.102;8.456;2024-02-26T05:33:16;5.90;68.20
11387;DHT22;5748;53.102;8.456;2024-02-26T05:35:43;5.90;68.70
11387;DHT22;5748;53.102;8.456;2024-02-26T05:38:10;6.00;68.80
11387;DHT22;5748;53.102;8.456;2024-02-26T05:40:37;6.00;68.70
11387;DHT22;5748;53.102;8.456;2024-02-26T05:43:04;6.00;68.70
11387;DHT22;5748;53.102;8.456;2024-02-26T05:45:31;6.00;68.70
11387;DHT22;5748;53.102;8.456;2024-02-26T05:47:59;6.00;68.60
11387;DHT22;5748;53.102;8.456;2024-02-26T05:50:26;5.90;68.60
11387;DHT22;5748;53.102;8.456;2024-02-26T05:52:53;5.90;68.60
11387;DHT22;5748;53.102;8.456;2024-02-26T05:55:20;5.90;68.60
11387;DHT22;5748;53.102;8.456;2024-02-26T05:57:47;5.90;69.40
11387;DHT22;5748;53.102;8.456;2024-02-26T06:00:15;5.90;68.80
11387;DHT22;5748;53.102;8.456;2024-02-26T06:02:42;5.90;68.90
11387;DHT22;5748;53.102;8.456;2024-02-26T06:05:11;5.90;69.10
11387;DHT22;5748;53.102;8.456;2024-02-26T06:07:38;5.90;69.20
11387;DHT22;5748;53.102;8.456;2024-02-26T06:10:06;5.70;71.00
11387;DHT22;5748;53.102;8.456;2024-02-26T06:12:35;5.70;71.00
11387;DHT22;5748;53.102;8.456;2024-02-26T06:15:02;5.80;70.90
11387;DHT22;5748;53.102;8.456;2024-02-26T06:17:30;5.90;70.80
11387;DHT22;5748;53.102;8.456;2024-02-26T06:19:57;6.00;70.50
11387;DHT22;5748;53.102;8.456;2024-02-26T06:22:26;6.10;70.50
11387;DHT22;5748;53.102;8.456;2024-02-26T06:24:54;6.20;70.50
11387;DHT22;5748;53.102;8.456;2024-02-26T06:27:21;6.20;70.30
11387;DHT22;5748;53.102;8.456;2024-02-26T06:29:48;6.30;70.20
11387;DHT22;5748;53.102;8.456;2024-02-26T06:32:15;6.30;70.10
11387;DHT22;5748;53.102;8.456;2024-02-26T06:34:42;6.30;70.00
11387;DHT22;5748;53.102;8.456;2024-02-26T06:37:09;6.50;70.10
11387;DHT22;5748;53.102;8.456;2024-02-26T06:39:37;6.40;70.00
11387;DHT22;5748;53.102;8.456;2024-02-26T06:42:05;6.40;70.00
11387;DHT22;5748;53.102;8.456;2024-02-26T06:44:32;6.40;70.60
11387;DHT22;5748;53.102;8.456;2024-02-26T06:47:00;6.40;69.90
11387;DHT22;5748;53.102;8.456;2024-02-26T06:49:28;6.40;70.00
11387;DHT22;5748;53.102;8.456;2024-02-26T06:51:56;6.50;69.40
11387;DHT22;5748;53.102;8.456;2024-02-26T06:54:23;6.50;69.90
11387;DHT22;5748;53.102;8.456;2024-02-26T06:56:51;6.50;69.70
11387;DHT22;5748;53.102;8.456;2024-02-26T06:59:18;6.50;69.70
11387;DHT22;5748;53.102;8.456;2024-02-26T07:01:45;6.60;69.80
11387;DHT22;5748;53.102;8.456;2024-02-26T07:04:12;6.60;69.90
11387;DHT22;5748;53.102;8.456;2024-02-26T07:06:39;6.50;69.70
11387;DHT22;5748;53.102;8.456;2024-02-26T07:09:07;6.60;69.80
11387;DHT22;5748;53.102;8.456;2024-02-26T07:11:34;6.60;69.70
11387;DHT22;5748;53.102;8.456;2024-02-26T07:14:02;6.60;69.70
11387;DHT22;5748;53.102;8.456;2024-02-26T07:16:29;6.60;69.70
11387;DHT22;5748;53.102;8.456;2024-02-26T07:18:56;7.00;70.10
11387;DHT22;5748;53.102;8.456;2024-02-26T07:21:23;6.80;69.90
11387;DHT22;5748;53.102;8.456;2024-02-26T07:23:50;6.70;69.80
11387;DHT22;5748;53.102;8.456;2024-02-26T07:26:19;6.70;69.90
11387;DHT22;5748;53.102;8.456;2024-02-26T07:28:46;6.80;69.90
11387;DHT22;5748;53.102;8.456;2024-02-26T07:31:14;6.80;69.90
11387;DHT22;5748;53.102;8.456;2024-02-26T07:33:41;6.80;70.00
11387;DHT22;5748;53.102;8.456;2024-02-26T07:36:08;6.80;70.10
11387;DHT22;5748;53.102;8.456;2024-02-26T07:38:35;6.90;70.20
11387;DHT22;5748;53.102;8.456;2024-02-26T07:41:02;6.90;70.20
11387;DHT22;5748;53.102;8.456;2024-02-26T07:43:30;6.90;70.20
11387;DHT22;5748;53.102;8.456;2024-02-26T07:45:57;7.00;70.20
11387;DHT22;5748;53.102;8.456;2024-02-26T07:48:26;7.00;70.20
11387;DHT22;5748;53.102;8.456;2024-02-26T07:50:53;7.10;70.30
11387;DHT22;5748;53.102;8.456;2024-02-26T07:53:20;7.10;70.20
11387;DHT22;5748;53.102;8.456;2024-02-26T07:55:47;7.10;70.10
11387;DHT22;5748;53.102;8.456;2024-02-26T07:58:14;7.20;70.20
11387;DHT22;5748;53.102;8.456;2024-02-26T08:00:41;7.20;70.20
11387;DHT22;5748;53.102;8.456;2024-02-26T08:03:09;7.20;70.10
11387;DHT22;5748;53.102;8.456;2024-02-26T08:05:37;7.30;70.20
11387;DHT22;5748;53.102;8.456;2024-02-26T08:08:06;7.30;70.30
11387;DHT22;5748;53.102;8.456;2024-02-26T08:10:34;7.30;70.20
11387;DHT22;5748;53.102;8.456;2024-02-26T08:13:01;7.30;70.10
11387;DHT22;5748;53.102;8.456;2024-02-26T08:15:31;7.40;70.20
11387;DHT22;5748;53.102;8.456;2024-02-26T08:17:59;7.50;70.30
11387;DHT22;5748;53.102;8.456;2024-02-26T08:20:28;7.40;70.10
11387;DHT22;5748;53.102;8.456;2024-02-26T08:22:56;7.50;70.30
11387;DHT22;5748;53.102;8.456;2024-02-26T08:25:23;7.50;70.20
11387;DHT22;5748;53.102;8.456;2024-02-26T08:27:50;7.50;70.30
11387;DHT22;5748;53.102;8.456;2024-02-26T08:30:18;7.60;70.40
11387;DHT22;5748;53.102;8.456;2024-02-26T08:32:45;7.60;70.40
11387;DHT22;5748;53.102;8.456;2024-02-26T08:35:14;7.60;70.40
11387;DHT22;5748;53.102;8.456;2024-02-26T08:37:44;7.60;70.40
11387;DHT22;5748;53.102;8.456;2024-02-26T08:40:13;7.70;70.50
11387;DHT22;5748;53.102;8.456;2024-02-26T08:42:40;7.70;70.50
11387;DHT22;5748;53.102;8.456;2024-02-26T08:45:08;7.80;70.50
11387;DHT22;5748;53.102;8.456;2024-02-26T08:47:36;7.80;70.60
11387;DHT22;5748;53.102;8.456;2024-02-26T08:50:04;7.80;70.60
11387;DHT22;5748;53.102;8.456;2024-02-26T08:52:32;7.90;70.70
11387;DHT22;5748;53.102;8.456;2024-02-26T08:54:59;8.00;70.70
11387;DHT22;5748;53.102;8.456;2024-02-26T08:57:28;8.00;70.60
11387;DHT22;5748;53.102;8.456;2024-02-26T08:59:55;8.00;70.60
11387;DHT22;5748;53.102;8.456;2024-02-26T09:02:22;8.00;70.60
11387;DHT22;5748;53.102;8.456;2024-02-26T09:04:49;8.10;70.70
11387;DHT22;5748;53.102;8.456;2024-02-26T09:07:16;8.10;70.80
11387;DHT22;5748;53.102;8.456;2024-02-26T09:09:43;8.20;70.90
11387;DHT22;5748;53.102;8.456;2024-02-26T09:12:10;8.30;70.60
11387;DHT22;5748;53.102;8.456;2024-02-26T09:14:39;8.30;70.90
11387;DHT22;5748;53.102;8.456;2024-02-26T09:17:06;8.40;71.00
11387;DHT22;5748;53.102;8.456;2024-02-26T09:19:33;8.40;71.00
11387;DHT22;5748;53.102;8.456;2024-02-26T09:22:00;8.50;71.10
11387;DHT22;5748;53.102;8.456;2024-02-26T09:24:27;8.60;71.20
11387;DHT22;5748;53.102;8.456;2024-02-26T09:26:54;8.60;71.10
11387;DHT22;5748;53.102;8.456;2024-02-26T09:29:21;8.70;71.30
11387;DHT22;5748;53.102;8.456;2024-02-26T09:31:50;8.80;71.30
11387;DHT22;5748;53.102;8.456;2024-02-26T09:34:17;8.80;71.30
11387;DHT22;5748;53.102;8.456;2024-02-26T09:36:44;8.90;71.20
11387;DHT22;5748;53.102;8.456;2024-02-26T09:39:11;9.00;71.30
11387;DHT22;5748;53.102;8.456;2024-02-26T09:41:40;9.10;71.20
11387;DHT22;5748;53.102;8.456;2024-02-26T09:44:07;9.10;71.10
11387;DHT22;5748;53.102;8.456;2024-02-26T09:46:35;9.20;71.20
11387;DHT22;5748;53.102;8.456;2024-02-26T09:49:04;9.30;71.20
11387;DHT22;5748;53.102;8.456;2024-02-26T09:51:31;9.30;71.20
11387;DHT22;5748;53.102;8.456;2024-02-26T09:53:59;9.40;71.20
11387;DHT22;5748;53.102;8.456;2024-02-26T09:56:27;9.50;71.30
11387;DHT22;5748;53.102;8.456;2024-02-26T09:58:56;9.60;71.30
11387;DHT22;5748;53.102;8.456;2024-02-26T10:01:23;9.70;71.30
11387;DHT22;5748;53.102;8.456;2024-02-26T10:03:54;9.80;71.30
11387;DHT22;5748;53.102;8.456;2024-02-26T10:06:24;9.90;71.60
11387;DHT22;5748;53.102;8.456;2024-02-26T10:08:51;10.00;70.70
11387;DHT22;5748;53.102;8.456;2024-02-26T10:11:20;10.10;70.80
11387;DHT22;5748;53.102;8.456;2024-02-26T10:13:48;10.20;70.90
11387;DHT22;5748;53.102;8.456;2024-02-26T10:16:16;10.30;70.90
11387;DHT22;5748;53.102;8.456;2024-02-26T10:18:47;10.40;71.00
11387;DHT22;5748;53.102;8.456;2024-02-26T10:21:16;10.60;71.10
11387;DHT22;5748;53.102;8.456;2024-02-26T10:23:45;11.00;71.30
11387;DHT22;5748;53.102;8.456;2024-02-26T10:26:13;11.00;71.10
11387;DHT22;5748;53.102;8.456;2024-02-26T10:28:42;11.00;71.00
11387;DHT22;5748;53.102;8.456;2024-02-26T10:31:10;11.10;71.10
11387;DHT22;5748;53.102;8.456;2024-02-26T10:33:38;11.30;71.30
11387;DHT22;5748;53.102;8.456;2024-02-26T10:36:07;11.50;71.50
11387;DHT22;5748;53.102;8.456;2024-02-26T10:38:35;11.60;71.40
11387;DHT22;5748;53.102;8.456;2024-02-26T10:41:04;11.80;71.50
11387;DHT22;5748;53.102;8.456;2024-02-26T10:43:34;11.90;71.10
11387;DHT22;5748;53.102;8.456;2024-02-26T10:46:01;12.00;70.60
11387;DHT22;5748;53.102;8.456;2024-02-26T10:48:28;12.10;70.30
11387;DHT22;5748;53.102;8.456;2024-02-26T10:50:55;12.20;69.90
11387;DHT22;5748;53.102;8.456;2024-02-26T10:53:25;12.20;69.70
11387;DHT22;5748;53.102;8.456;2024-02-26T10:55:58;12.30;69.60
11387;DHT22;5748;53.102;8.456;2024-02-26T10:58:31;12.30;69.30
11387;DHT22;5748;53.102;8.456;2024-02-26T11:00:58;12.30;69.10
11387;DHT22;5748;53.102;8.456;2024-02-26T11:03:26;12.40;69.10
11387;DHT22;5748;53.102;8.456;2024-02-26T11:05:57;12.40;68.90
11387;DHT22;5748;53.102;8.456;2024-02-26T11:08:26;12.40;68.70
11387;DHT22;5748;53.102;8.456;2024-02-26T11:10:54;12.40;68.60
11387;DHT22;5748;53.102;8.456;2024-02-26T11:13:22;12.30;68.50
11387;DHT22;5748;53.102;8.456;2024-02-26T11:15:53;12.40;68.60
11387;DHT22;5748;53.102;8.456;2024-02-26T11:18:23;12.30;68.60
11387;DHT22;5748;53.102;8.456;2024-02-26T11:20:54;12.40;68.60
11387;DHT22;5748;53.102;8.456;2024-02-26T11:23:23;12.30;68.30
11387;DHT22;5748;53.102;8.456;2024-02-26T11:25:51;12.30;68.40
11387;DHT22;5748;53.102;8.456;2024-02-26T11:28:19;12.40;68.50
11387;DHT22;5748;53.102;8.456;2024-02-26T11:30:48;12.40;68.50
11387;DHT22;5748;53.102;8.456;2024-02-26T11:33:17;12.30;68.40
11387;DHT22;5748;53.102;8.456;2024-02-26T11:35:45;12.40;68.40
11387;DHT22;5748;53.102;8.456;2024-02-26T11:38:19;12.40;68.30
11387;DHT22;5748;53.102;8.456;2024-02-26T11:40:47;13.00;68.80
11387;DHT22;5748;53.102;8.456;2024-02-26T11:43:14;12.40;68.20
11387;DHT22;5748;53.102;8.456;2024-02-26T11:45:51;12.40;68.20
11387;DHT22;5748;53.102;8.456;2024-02-26T11:48:22;12.50;68.20
11387;DHT22;5748;53.102;8.456;2024-02-26T11:50:52;12.40;68.30
11387;DHT22;5748;53.102;8.456;2024-02-26T11:53:20;12.50;68.40
11387;DHT22;5748;53.102;8.456;2024-02-26T11:55:49;12.50;68.40
11387;DHT22;5748;53.102;8.456;2024-02-26T11:58:39;12.50;68.50
11387;DHT22;5748;53.102;8.456;2024-02-26T12:01:36;12.60;68.40
11387;DHT22;5748;53.102;8.456;2024-02-26T12:04:07;12.60;67.80
11387;DHT22;5748;53.102;8.456;2024-02-26T12:06:56;12.70;68.50
11387;DHT22;5748;53.102;8.456;2024-02-26T12:09:32;12.70;68.20
11387;DHT22;5748;53.102;8.456;2024-02-26T12:12:02;12.70;68.40
11387;DHT22;5748;53.102;8.456;2024-02-26T12:14:32;12.80;67.90
11387;DHT22;5748;53.102;8.456;2024-02-26T12:17:00;12.80;68.40
11387;DHT22;5748;53.102;8.456;2024-02-26T12:19:30;12.90;68.40
11387;DHT22;5748;53.102;8.456;2024-02-26T12:21:58;12.80;68.40
11387;DHT22;5748;53.102;8.456;2024-02-26T12:24:25;12.90;68.30
11387;DHT22;5748;53.102;8.456;2024-02-26T12:26:52;12.90;68.30
11387;DHT22;5748;53.102;8.456;2024-02-26T12:29:20;12.90;68.20
11387;DHT22;5748;53.102;8.456;2024-02-26T12:31:47;13.00;68.40
11387;DHT22;5748;53.102;8.456;2024-02-26T12:34:15;13.10;68.70
11387;DHT22;5748;53.102;8.456;2024-02-26T12:36:44;13.10;68.90
11387;DHT22;5748;53.102;8.456;2024-02-26T12:39:11;13.20;69.20
11387;DHT22;5748;53.102;8.456;2024-02-26T12:41:38;13.30;69.10
11387;DHT22;5748;53.102;8.456;2024-02-26T12:44:07;13.40;69.00
11387;DHT22;5748;53.102;8.456;2024-02-26T12:46:34;13.40;68.60
11387;DHT22;5748;53.102;8.456;2024-02-26T12:49:01;13.50;68.40
11387;DHT22;5748;53.102;8.456;2024-02-26T12:51:29;13.60;68.20
11387;DHT22;5748;53.102;8.456;2024-02-26T12:53:58;13.60;68.20
11387;DHT22;5748;53.102;8.456;2024-02-26T12:56:26;13.70;68.10
11387;DHT22;5748;53.102;8.456;2024-02-26T12:58:54;13.80;68.30
11387;DHT22;5748;53.102;8.456;2024-02-26T13:01:23;13.80;67.90
11387;DHT22;5748;53.102;8.456;2024-02-26T13:03:53;13.80;67.60
11387;DHT22;5748;53.102;8.456;2024-02-26T13:06:20;13.80;67.20
11387;DHT22;5748;53.102;8.456;2024-02-26T13:08:48;13.80;67.20
11387;DHT22;5748;53.102;8.456;2024-02-26T13:11:17;13.80;67.10
11387;DHT22;5748;53.102;8.456;2024-02-26T13:13:47;13.70;66.90
11387;DHT22;5748;53.102;8.456;2024-02-26T13:16:16;13.60;66.60
11387;DHT22;5748;53.102;8.456;2024-02-26T13:18:43;13.60;66.50
11387;DHT22;5748;53.102;8.456;2024-02-26T13:21:12;13.60;66.40
11387;DHT22;5748;53.102;8.456;2024-02-26T13:23:41;13.50;66.40
11387;DHT22;5748;53.102;8.456;2024-02-26T13:26:11;13.40;66.30
11387;DHT22;5748;53.102;8.456;2024-02-26T13:28:40;13.40;66.50
11387;DHT22;5748;53.102;8.456;2024-02-26T13:31:08;13.30;66.40
11387;DHT22;5748;53.102;8.456;2024-02-26T13:33:35;13.30;66.50
11387;DHT22;5748;53.102;8.456;2024-02-26T13:36:03;13.20;66.60
11387;DHT22;5748;53.102;8.456;2024-02-26T13:38:31;13.10;66.20
11387;DHT22;5748;53.102;8.456;2024-02-26T13:40:58;13.20;66.50
11387;DHT22;5748;53.102;8.456;2024-02-26T13:43:26;13.10;66.40
11387;DHT22;5748;53.102;8.456;2024-02-26T13:45:54;13.00;66.40
11387;DHT22;5748;53.102;8.456;2024-02-26T13:48:21;13.00;66.40
11387;DHT22;5748;53.102;8.456;2024-02-26T13:50:49;13.00;66.60
11387;DHT22;5748;53.102;8.456;2024-02-26T13:53:16;13.00;66.90
11387;DHT22;5748;53.102;8.456;2024-02-26T13:55:43;12.90;66.40
11387;DHT22;5748;53.102;8.456;2024-02-26T13:58:12;12.90;66.30
11387;DHT22;5748;53.102;8.456;2024-02-26T14:00:40;12.90;66.40
11387;DHT22;5748;53.102;8.456;2024-02-26T14:03:08;12.90;66.50
11387;DHT22;5748;53.102;8.456;2024-02-26T14:05:35;12.90;66.60
11387;DHT22;5748;53.102;8.456;2024-02-26T14:08:03;12.80;65.80
11387;DHT22;5748;53.102;8.456;2024-02-26T14:10:30;12.80;66.50
11387;DHT22;5748;53.102;8.456;2024-02-26T14:12:58;12.70;66.40
11387;DHT22;5748;53.102;8.456;2024-02-26T14:15:25;12.70;66.40
11387;DHT22;5748;53.102;8.456;2024-02-26T14:17:54;12.60;65.50
11387;DHT22;5748;53.102;8.456;2024-02-26T14:20:23;12.60;66.10
11387;DHT22;5748;53.102;8.456;2024-02-26T14:22:51;12.50;66.10
11387;DHT22;5748;53.102;8.456;2024-02-26T14:25:18;12.50;66.10
11387;DHT22;5748;53.102;8.456;2024-02-26T14:27:46;12.50;66.10
11387;DHT22;5748;53.102;8.456;2024-02-26T14:30:14;12.50;66.10
11387;DHT22;5748;53.102;8.456;2024-02-26T14:32:41;12.40;66.10
11387;DHT22;5748;53.102;8.456;2024-02-26T14:35:09;12.30;66.10
11387;DHT22;5748;53.102;8.456;2024-02-26T14:37:38;12.20;65.40
11387;DHT22;5748;53.102;8.456;2024-02-26T14:40:06;12.20;65.90
11387;DHT22;5748;53.102;8.456;2024-02-26T14:42:34;12.10;65.90
11387;DHT22;5748;53.102;8.456;2024-02-26T14:45:02;12.10;65.90
11387;DHT22;5748;53.102;8.456;2024-02-26T14:47:34;12.00;65.90
11387;DHT22;5748;53.102;8.456;2024-02-26T14:50:01;12.10;66.00
11387;DHT22;5748;53.102;8.456;2024-02-26T14:52:28;12.90;66.90
11387;DHT22;5748;53.102;8.456;2024-02-26T14:54:57;11.90;66.00
11387;DHT22;5748;53.102;8.456;2024-02-26T14:57:24;11.90;66.00
11387;DHT22;5748;53.102;8.456;2024-02-26T14:59:51;11.80;66.10
11387;DHT22;5748;53.102;8.456;2024-02-26T15:02:18;11.80;66.10
11387;DHT22;5748;53.102;8.456;2024-02-26T15:04:45;11.80;67.00
11387;DHT22;5748;53.102;8.456;2024-02-26T15:07:13;11.70;66.20
11387;DHT22;5748;53.102;8.456;2024-02-26T15:09:40;11.70;66.10
11387;DHT22;5748;53.102;8.456;2024-02-26T15:12:10;11.70;66.10
11387;DHT22;5748;53.102;8.456;2024-02-26T15:14:37;11.70;66.20
11387;DHT22;5748;53.102;8.456;2024-02-26T15:17:04;11.60;66.10
11387;DHT22;5748;53.102;8.456;2024-02-26T15:19:35;11.60;66.10
11387;DHT22;5748;53.102;8.456;2024-02-26T15:22:03;11.60;66.10
11387;DHT22;5748;53.102;8.456;2024-02-26T15:24:30;11.60;66.20
11387;DHT22;5748;53.102;8.456;2024-02-26T15:26:57;11.90;66.40
11387;DHT22;5748;53.102;8.456;2024-02-26T15:29:25;11.50;66.00
11387;DHT22;5748;53.102;8.456;2024-02-26T15:31:52;11.50;66.10
11387;DHT22;5748;53.102;8.456;2024-02-26T15:34:19;11.50;66.20
11387;DHT22;5748;53.102;8.456;2024-02-26T15:36:46;11.40;65.60
11387;DHT22;5748;53.102;8.456;2024-02-26T15:39:13;11.40;66.10
11387;DHT22;5748;53.102;8.456;2024-02-26T15:41:41;11.40;66.30
11387;DHT22;5748;53.102;8.456;2024-02-26T15:44:08;11.40;66.30
11387;DHT22;5748;53.102;8.456;2024-02-26T15:46:40;11.50;66.40
11387;DHT22;5748;53.102;8.456;2024-02-26T15:49:07;11.40;66.30
11387;DHT22;5748;53.102;8.456;2024-02-26T15:51:34;11.40;66.30
11387;DHT22;5748;53.102;8.456;2024-02-26T15:54:02;11.40;66.40
11387;DHT22;5748;53.102;8.456;2024-02-26T15:56:29;11.30;66.20
11387;DHT22;5748;53.102;8.456;2024-02-26T15:58:56;11.40;66.20